sensor_id;sensor_type;location;lat;lon;timestamp;temperature;humidity
20590;DHT22;10453;50.810;12.540;2023-07-22T00:00:00;13.90;99.90
20590;DHT22;10453;50.810;12.540;2023-07-22T00:04:17;13.90;99.90
20590;DHT22;10453;50.810;12.540;2023-07-22T00:08:36;13.90;99.90
20590;DHT22;10453;50.810;12.540;2023-07-22T00:12:54;13.90;99.90
20590;DHT22;10453;50.810;12.540;2023-07-22T00:17:16;13.90;99.90
20590;DHT22;10453;50.810;12.540;2023-07-22T00:21:34;14.00;99.90
20590;DHT22;10453;50.810;12.540;2023-07-22T00:25:54;13.90;99.90
20590;DHT22;10453;50.810;12.540;2023-07-22T00:30:13;13.90;99.90
20590;DHT22;10453;50.810;12.540;2023-07-22T00:34:30;13.90;99.90
20590;DHT22;10453;50.810;12.540;2023-07-22T00:38:48;13.90;99.90
20590;DHT22;10453;50.810;12.540;2023-07-22T00:43:06;13.90;99.90
20590;DHT22;10453;50.810;12.540;2023-07-22T00:47:27;14.00;99.90
20590;DHT22;10453;50.810;12.540;2023-07-22T00:51:44;14.00;99.90
20590;DHT22;10453;50.810;12.540;2023-07-22T00:56:02;14.00;99.90
20590;DHT22;10453;50.810;12.540;2023-07-22T01:00:19;14.00;99.90
20590;DHT22;10453;50.810;12.540;2023-07-22T01:04:40;14.00;99.90
20590;DHT22;10453;50.810;12.540;2023-07-22T01:09:01;13.90;99.90
20590;DHT22;10453;50.810;12.540;2023-07-22T01:13:18;14.00;99.90
20590;DHT22;10453;50.810;12.540;2023-07-22T01:17:40;13.80;99.90
20590;DHT22;10453;50.810;12.540;2023-07-22T01:21:59;13.70;99.90
20590;DHT22;10453;50.810;12.540;2023-07-22T01:26:17;13.70;99.90
20590;DHT22;10453;50.810;12.540;2023-07-22T01:30:35;13.80;99.90
20590;DHT22;10453;50.810;12.540;2023-07-22T01:34:52;13.80;99.90
20590;DHT22;10453;50.810;12.540;2023-07-22T01:39:10;13.70;99.90
20590;DHT22;10453;50.810;12.540;2023-07-22T01:43:34;13.70;99.90
20590;DHT22;10453;50.810;12.540;2023-07-22T01:47:51;13.70;99.90
20590;DHT22;10453;50.810;12.540;2023-07-22T01:52:17;13.90;99.90
20590;DHT22;10453;50.810;12.540;2023-07-22T01:56:34;13.80;99.90
20590;DHT22;10453;50.810;12.540;2023-07-22T02:00:52;13.80;99.90
20590;DHT22;10453;50.810;12.540;2023-07-22T02:05:10;13.90;99.90
20590;DHT22;10453;50.810;12.540;2023-07-22T02:09:28;13.80;99.90
20590;DHT22;10453;50.810;12.540;2023-07-22T02:13:45;13.70;99.90
20590;DHT22;10453;50.810;12.540;2023-07-22T02:18:03;13.70;99.90
20590;DHT22;10453;50.810;12.540;2023-07-22T02:22:20;13.60;99.90
20590;DHT22;10453;50.810;12.540;2023-07-22T02:26:38;13.50;99.90
20590;DHT22;10453;50.810;12.540;2023-07-22T02:30:55;13.40;99.90
20590;DHT22;10453;50.810;12.540;2023-07-22T02:35:12;13.30;99.90
20590;DHT22;10453;50.810;12.540;2023-07-22T02:39:31;13.20;99.90
20590;DHT22;10453;50.810;12.540;2023-07-22T02:43:51;13.10;99.90
20590;DHT22;10453;50.810;12.540;2023-07-22T02:48:09;13.00;99.90
20590;DHT22;10453;50.810;12.540;2023-07-22T02:52:27;12.90;99.90
20590;DHT22;10453;50.810;12.540;2023-07-22T02:56:47;12.90;99.90
20590;DHT22;10453;50.810;12.540;2023-07-22T03:01:04;13.00;99.90
20590;DHT22;10453;50.810;12.540;2023-07-22T03:05:24;12.80;99.90
20590;DHT22;10453;50.810;12.540;2023-07-22T03:09:43;12.80;99.90
20590;DHT22;10453;50.810;12.540;2023-07-22T03:14:01;12.80;99.90
20590;DHT22;10453;50.810;12.540;2023-07-22T03:18:19;12.70;99.90
20590;DHT22;10453;50.810;12.540;2023-07-22T03:22:37;12.70;99.90
20590;DHT22;10453;50.810;12.540;2023-07-22T03:26:56;12.70;99.90
20590;DHT22;10453;50.810;12.540;2023-07-22T03:31:14;12.70;99.90
20590;DHT22;10453;50.810;12.540;2023-07-22T03:35:33;12.60;99.90
20590;DHT22;10453;50.810;12.540;2023-07-22T03:39:51;12.60;99.90
20590;DHT22;10453;50.810;12.540;2023-07-22T03:44:11;12.70;99.90
20590;DHT22;10453;50.810;12.540;2023-07-22T03:48:30;12.70;99.90
20590;DHT22;10453;50.810;12.540;2023-07-22T03:52:47;12.70;99.90
20590;DHT22;10453;50.810;12.540;2023-07-22T03:57:05;12.70;99.90
20590;DHT22;10453;50.810;12.540;2023-07-22T04:01:26;12.80;99.90
20590;DHT22;10453;50.810;12.540;2023-07-22T04:05:44;12.80;99.90
20590;DHT22;10453;50.810;12.540;2023-07-22T04:10:02;12.80;99.90
20590;DHT22;10453;50.810;12.540;2023-07-22T04:14:22;12.90;99.90
20590;DHT22;10453;50.810;12.540;2023-07-22T04:18:43;12.80;99.90
20590;DHT22;10453;50.810;12.540;2023-07-22T04:23:00;12.90;99.90
20590;DHT22;10453;50.810;12.540;2023-07-22T04:27:18;12.90;99.90
20590;DHT22;10453;50.810;12.540;2023-07-22T04:31:35;13.00;99.90
20590;DHT22;10453;50.810;12.540;2023-07-22T04:35:59;13.00;99.90
20590;DHT22;10453;50.810;12.540;2023-07-22T04:40:17;13.00;99.90
20590;DHT22;10453;50.810;12.540;2023-07-22T04:44:35;13.00;99.90
20590;DHT22;10453;50.810;12.540;2023-07-22T04:48:56;13.10;99.90
20590;DHT22;10453;50.810;12.540;2023-07-22T04:53:17;13.20;99.90
20590;DHT22;10453;50.810;12.540;2023-07-22T04:57:38;13.20;99.90
20590;DHT22;10453;50.810;12.540;2023-07-22T05:01:59;13.20;99.90
20590;DHT22;10453;50.810;12.540;2023-07-22T05:06:23;13.20;99.90
20590;DHT22;10453;50.810;12.540;2023-07-22T05:10:44;13.30;99.90
20590;DHT22;10453;50.810;12.540;2023-07-22T05:15:02;13.40;99.90
20590;DHT22;10453;50.810;12.540;2023-07-22T05:19:20;13.50;99.90
20590;DHT22;10453;50.810;12.540;2023-07-22T05:23:37;13.60;99.90
20590;DHT22;10453;50.810;12.540;2023-07-22T05:27:57;13.70;99.90
20590;DHT22;10453;50.810;12.540;2023-07-22T05:32:15;13.90;99.90
20590;DHT22;10453;50.810;12.540;2023-07-22T05:36:49;13.90;99.90
20590;DHT22;10453;50.810;12.540;2023-07-22T05:41:09;13.90;99.90
20590;DHT22;10453;50.810;12.540;2023-07-22T05:45:26;13.90;99.90
20590;DHT22;10453;50.810;12.540;2023-07-22T05:49:46;14.00;99.90
20590;DHT22;10453;50.810;12.540;2023-07-22T05:54:05;14.20;99.90
20590;DHT22;10453;50.810;12.540;2023-07-22T05:58:22;14.10;99.90
20590;DHT22;10453;50.810;12.540;2023-07-22T06:02:43;14.30;99.90
20590;DHT22;10453;50.810;12.540;2023-07-22T06:07:00;14.30;99.90
20590;DHT22;10453;50.810;12.540;2023-07-22T06:11:21;14.40;99.90
20590;DHT22;10453;50.810;12.540;2023-07-22T06:15:38;14.40;99.90
20590;DHT22;10453;50.810;12.540;2023-07-22T06:19:56;14.50;99.90
20590;DHT22;10453;50.810;12.540;2023-07-22T06:24:17;14.50;99.90
20590;DHT22;10453;50.810;12.540;2023-07-22T06:28:37;14.60;99.90
20590;DHT22;10453;50.810;12.540;2023-07-22T06:32:55;14.70;99.90
20590;DHT22;10453;50.810;12.540;2023-07-22T06:37:13;14.80;99.90
20590;DHT22;10453;50.810;12.540;2023-07-22T06:41:33;14.80;99.90
20590;DHT22;10453;50.810;12.540;2023-07-22T06:45:50;14.90;99.90
20590;DHT22;10453;50.810;12.540;2023-07-22T06:50:08;15.20;99.90
20590;DHT22;10453;50.810;12.540;2023-07-22T06:54:26;15.20;99.90
20590;DHT22;10453;50.810;12.540;2023-07-22T06:58:44;15.50;99.90
20590;DHT22;10453;50.810;12.540;2023-07-22T07:03:05;15.60;99.90
20590;DHT22;10453;50.810;12.540;2023-07-22T07:07:25;15.70;99.90
20590;DHT22;10453;50.810;12.540;2023-07-22T07:11:44;15.60;99.90
20590;DHT22;10453;50.810;12.540;2023-07-22T07:16:25;15.80;99.90
20590;DHT22;10453;50.810;12.540;2023-07-22T07:20:50;16.10;99.90
20590;DHT22;10453;50.810;12.540;2023-07-22T07:25:09;16.40;99.90
20590;DHT22;10453;50.810;12.540;2023-07-22T07:29:26;16.30;99.90
20590;DHT22;10453;50.810;12.540;2023-07-22T07:34:04;16.40;99.90
20590;DHT22;10453;50.810;12.540;2023-07-22T07:38:22;16.50;99.90
20590;DHT22;10453;50.810;12.540;2023-07-22T07:42:40;16.70;99.90
20590;DHT22;10453;50.810;12.540;2023-07-22T07:46:57;16.80;99.90
20590;DHT22;10453;50.810;12.540;2023-07-22T07:51:16;16.60;99.90
20590;DHT22;10453;50.810;12.540;2023-07-22T07:55:37;18.10;99.90
20590;DHT22;10453;50.810;12.540;2023-07-22T07:59:54;19.00;99.90
20590;DHT22;10453;50.810;12.540;2023-07-22T08:04:23;19.90;99.90
20590;DHT22;10453;50.810;12.540;2023-07-22T08:08:41;21.10;99.90
20590;DHT22;10453;50.810;12.540;2023-07-22T08:13:03;21.10;99.90
20590;DHT22;10453;50.810;12.540;2023-07-22T08:17:21;20.90;99.90
20590;DHT22;10453;50.810;12.540;2023-07-22T08:21:41;21.40;99.90
20590;DHT22;10453;50.810;12.540;2023-07-22T08:26:07;21.00;99.90
20590;DHT22;10453;50.810;12.540;2023-07-22T08:30:25;21.10;99.90
20590;DHT22;10453;50.810;12.540;2023-07-22T08:34:43;21.80;99.90
20590;DHT22;10453;50.810;12.540;2023-07-22T08:39:02;22.10;99.90
20590;DHT22;10453;50.810;12.540;2023-07-22T08:43:22;21.80;99.90
20590;DHT22;10453;50.810;12.540;2023-07-22T08:48:11;22.20;97.10
20590;DHT22;10453;50.810;12.540;2023-07-22T08:52:35;22.10;90.50
20590;DHT22;10453;50.810;12.540;2023-07-22T08:57:02;22.70;82.30
20590;DHT22;10453;50.810;12.540;2023-07-22T09:01:28;22.10;90.10
20590;DHT22;10453;50.810;12.540;2023-07-22T09:05:46;22.10;81.70
20590;DHT22;10453;50.810;12.540;2023-07-22T09:10:06;22.40;83.50
20590;DHT22;10453;50.810;12.540;2023-07-22T09:14:26;23.20;73.80
20590;DHT22;10453;50.810;12.540;2023-07-22T09:18:58;23.80;80.00
20590;DHT22;10453;50.810;12.540;2023-07-22T09:23:17;22.30;74.10
20590;DHT22;10453;50.810;12.540;2023-07-22T09:27:43;21.00;76.60
20590;DHT22;10453;50.810;12.540;2023-07-22T09:32:01;21.40;80.90
20590;DHT22;10453;50.810;12.540;2023-07-22T09:36:24;23.40;89.10
20590;DHT22;10453;50.810;12.540;2023-07-22T09:40:48;21.40;78.10
20590;DHT22;10453;50.810;12.540;2023-07-22T09:45:06;22.40;73.10
20590;DHT22;10453;50.810;12.540;2023-07-22T09:49:24;22.30;76.70
20590;DHT22;10453;50.810;12.540;2023-07-22T09:53:45;23.10;75.20
20590;DHT22;10453;50.810;12.540;2023-07-22T09:58:10;21.40;74.40
20590;DHT22;10453;50.810;12.540;2023-07-22T10:02:40;22.60;72.60
20590;DHT22;10453;50.810;12.540;2023-07-22T10:07:03;24.60;78.90
20590;DHT22;10453;50.810;12.540;2023-07-22T10:11:25;24.80;66.50
20590;DHT22;10453;50.810;12.540;2023-07-22T10:15:50;25.30;68.00
20590;DHT22;10453;50.810;12.540;2023-07-22T10:20:10;25.50;63.50
20590;DHT22;10453;50.810;12.540;2023-07-22T10:24:40;25.20;58.80
20590;DHT22;10453;50.810;12.540;2023-07-22T10:28:59;25.60;61.40
20590;DHT22;10453;50.810;12.540;2023-07-22T10:33:17;26.40;55.80
20590;DHT22;10453;50.810;12.540;2023-07-22T10:37:35;23.40;59.30
20590;DHT22;10453;50.810;12.540;2023-07-22T10:42:03;22.10;62.40
20590;DHT22;10453;50.810;12.540;2023-07-22T10:51:13;21.30;66.90
20590;DHT22;10453;50.810;12.540;2023-07-22T11:00:29;22.10;65.00
20590;DHT22;10453;50.810;12.540;2023-07-22T11:04:52;23.70;61.60
20590;DHT22;10453;50.810;12.540;2023-07-22T11:13:50;25.00;60.10
20590;DHT22;10453;50.810;12.540;2023-07-22T11:18:10;27.40;57.90
20590;DHT22;10453;50.810;12.540;2023-07-22T11:22:33;26.80;54.20
20590;DHT22;10453;50.810;12.540;2023-07-22T11:26:56;26.90;59.20
20590;DHT22;10453;50.810;12.540;2023-07-22T11:31:13;24.50;56.00
20590;DHT22;10453;50.810;12.540;2023-07-22T11:35:31;22.70;57.30
20590;DHT22;10453;50.810;12.540;2023-07-22T11:39:49;22.10;58.80
20590;DHT22;10453;50.810;12.540;2023-07-22T11:44:06;21.60;62.30
20590;DHT22;10453;50.810;12.540;2023-07-22T11:48:27;21.70;60.80
20590;DHT22;10453;50.810;12.540;2023-07-22T11:52:51;21.80;61.60
20590;DHT22;10453;50.810;12.540;2023-07-22T11:57:15;21.70;64.50
20590;DHT22;10453;50.810;12.540;2023-07-22T12:01:33;21.60;66.10
20590;DHT22;10453;50.810;12.540;2023-07-22T12:05:51;21.50;65.70
20590;DHT22;10453;50.810;12.540;2023-07-22T12:10:09;21.50;64.20
20590;DHT22;10453;50.810;12.540;2023-07-22T12:14:34;22.30;68.90
20590;DHT22;10453;50.810;12.540;2023-07-22T12:18:57;23.20;67.50
20590;DHT22;10453;50.810;12.540;2023-07-22T12:23:18;25.00;66.10
20590;DHT22;10453;50.810;12.540;2023-07-22T12:27:46;24.00;62.90
20590;DHT22;10453;50.810;12.540;2023-07-22T12:32:07;23.70;61.60
20590;DHT22;10453;50.810;12.540;2023-07-22T12:36:28;23.00;64.40
20590;DHT22;10453;50.810;12.540;2023-07-22T12:40:58;23.30;64.70
20590;DHT22;10453;50.810;12.540;2023-07-22T12:45:25;24.00;63.60
20590;DHT22;10453;50.810;12.540;2023-07-22T12:49:47;24.10;58.70
20590;DHT22;10453;50.810;12.540;2023-07-22T12:54:13;23.70;58.10
20590;DHT22;10453;50.810;12.540;2023-07-22T12:58:45;23.20;56.70
20590;DHT22;10453;50.810;12.540;2023-07-22T13:03:07;24.90;60.10
20590;DHT22;10453;50.810;12.540;2023-07-22T13:07:27;24.50;55.30
20590;DHT22;10453;50.810;12.540;2023-07-22T13:11:49;24.20;56.30
20590;DHT22;10453;50.810;12.540;2023-07-22T13:16:15;24.10;54.60
20590;DHT22;10453;50.810;12.540;2023-07-22T13:20:39;25.40;57.70
20590;DHT22;10453;50.810;12.540;2023-07-22T13:25:06;24.20;59.80
20590;DHT22;10453;50.810;12.540;2023-07-22T13:29:30;23.40;57.50
20590;DHT22;10453;50.810;12.540;2023-07-22T13:33:53;23.20;58.00
20590;DHT22;10453;50.810;12.540;2023-07-22T13:38:13;22.70;58.10
20590;DHT22;10453;50.810;12.540;2023-07-22T13:42:31;22.40;57.90
20590;DHT22;10453;50.810;12.540;2023-07-22T13:46:49;22.00;59.60
20590;DHT22;10453;50.810;12.540;2023-07-22T13:51:07;22.20;60.30
20590;DHT22;10453;50.810;12.540;2023-07-22T13:55:34;22.80;59.20
20590;DHT22;10453;50.810;12.540;2023-07-22T13:59:51;23.30;60.20
20590;DHT22;10453;50.810;12.540;2023-07-22T14:04:10;24.00;69.00
20590;DHT22;10453;50.810;12.540;2023-07-22T14:08:35;23.80;62.80
20590;DHT22;10453;50.810;12.540;2023-07-22T14:12:56;23.50;60.90
20590;DHT22;10453;50.810;12.540;2023-07-22T14:17:17;23.70;59.30
20590;DHT22;10453;50.810;12.540;2023-07-22T14:21:46;23.60;58.40
20590;DHT22;10453;50.810;12.540;2023-07-22T14:26:04;26.80;61.70
20590;DHT22;10453;50.810;12.540;2023-07-22T14:30:22;24.90;56.70
20590;DHT22;10453;50.810;12.540;2023-07-22T14:35:22;25.50;56.50
20590;DHT22;10453;50.810;12.540;2023-07-22T14:40:07;27.40;55.90
20590;DHT22;10453;50.810;12.540;2023-07-22T14:45:18;28.10;55.10
20590;DHT22;10453;50.810;12.540;2023-07-22T14:49:49;27.10;52.50
20590;DHT22;10453;50.810;12.540;2023-07-22T14:55:20;25.90;54.20
20590;DHT22;10453;50.810;12.540;2023-07-22T15:00:50;25.50;55.70
20590;DHT22;10453;50.810;12.540;2023-07-22T15:05:30;26.30;56.30
20590;DHT22;10453;50.810;12.540;2023-07-22T15:10:56;25.90;57.40
20590;DHT22;10453;50.810;12.540;2023-07-22T15:15:32;26.00;54.20
20590;DHT22;10453;50.810;12.540;2023-07-22T15:20:15;26.00;56.90
20590;DHT22;10453;50.810;12.540;2023-07-22T15:24:53;26.60;58.10
20590;DHT22;10453;50.810;12.540;2023-07-22T15:29:39;24.90;56.50
20590;DHT22;10453;50.810;12.540;2023-07-22T15:34:16;25.40;56.80
20590;DHT22;10453;50.810;12.540;2023-07-22T15:38:45;26.50;57.30
20590;DHT22;10453;50.810;12.540;2023-07-22T15:43:14;26.30;56.30
20590;DHT22;10453;50.810;12.540;2023-07-22T15:47:40;24.30;56.50
20590;DHT22;10453;50.810;12.540;2023-07-22T15:52:08;23.90;58.80
20590;DHT22;10453;50.810;12.540;2023-07-22T15:56:43;24.60;59.00
20590;DHT22;10453;50.810;12.540;2023-07-22T16:01:25;25.10;57.40
20590;DHT22;10453;50.810;12.540;2023-07-22T16:05:43;24.80;58.80
20590;DHT22;10453;50.810;12.540;2023-07-22T16:10:03;23.50;61.00
20590;DHT22;10453;50.810;12.540;2023-07-22T16:14:25;23.10;61.10
20590;DHT22;10453;50.810;12.540;2023-07-22T16:18:45;22.60;60.60
20590;DHT22;10453;50.810;12.540;2023-07-22T16:23:06;22.30;61.80
20590;DHT22;10453;50.810;12.540;2023-07-22T16:27:31;22.10;63.40
20590;DHT22;10453;50.810;12.540;2023-07-22T16:31:59;22.00;65.30
20590;DHT22;10453;50.810;12.540;2023-07-22T16:36:20;21.90;66.70
20590;DHT22;10453;50.810;12.540;2023-07-22T16:40:43;21.90;68.60
20590;DHT22;10453;50.810;12.540;2023-07-22T16:45:09;21.80;73.10
20590;DHT22;10453;50.810;12.540;2023-07-22T16:49:31;21.80;73.90
20590;DHT22;10453;50.810;12.540;2023-07-22T16:53:56;22.20;75.50
20590;DHT22;10453;50.810;12.540;2023-07-22T16:58:29;22.80;71.10
20590;DHT22;10453;50.810;12.540;2023-07-22T17:02:47;22.40;66.10
20590;DHT22;10453;50.810;12.540;2023-07-22T17:07:07;22.20;73.50
20590;DHT22;10453;50.810;12.540;2023-07-22T17:11:30;21.90;73.80
20590;DHT22;10453;50.810;12.540;2023-07-22T17:15:54;21.80;74.80
20590;DHT22;10453;50.810;12.540;2023-07-22T17:20:18;21.90;71.70
20590;DHT22;10453;50.810;12.540;2023-07-22T17:24:40;22.10;74.00
20590;DHT22;10453;50.810;12.540;2023-07-22T17:29:04;22.20;71.20
20590;DHT22;10453;50.810;12.540;2023-07-22T17:34:17;22.10;72.80
20590;DHT22;10453;50.810;12.540;2023-07-22T17:38:45;22.00;71.70
20590;DHT22;10453;50.810;12.540;2023-07-22T17:43:22;21.90;72.50
20590;DHT22;10453;50.810;12.540;2023-07-22T17:48:06;21.80;74.50
20590;DHT22;10453;50.810;12.540;2023-07-22T17:53:29;21.60;74.20
20590;DHT22;10453;50.810;12.540;2023-07-22T17:57:58;21.50;79.30
20590;DHT22;10453;50.810;12.540;2023-07-22T18:02:58;21.40;83.50
20590;DHT22;10453;50.810;12.540;2023-07-22T18:18:59;21.30;89.30
20590;DHT22;10453;50.810;12.540;2023-07-22T18:24:18;21.40;92.30
20590;DHT22;10453;50.810;12.540;2023-07-22T18:34:40;21.10;93.30
20590;DHT22;10453;50.810;12.540;2023-07-22T18:39:11;20.80;94.60
20590;DHT22;10453;50.810;12.540;2023-07-22T18:44:27;20.60;98.20
20590;DHT22;10453;50.810;12.540;2023-07-22T18:49:34;20.20;99.90
20590;DHT22;10453;50.810;12.540;2023-07-22T18:54:48;19.50;99.90
20590;DHT22;10453;50.810;12.540;2023-07-22T18:59:12;19.00;99.90
20590;DHT22;10453;50.810;12.540;2023-07-22T19:03:38;18.70;99.90
20590;DHT22;10453;50.810;12.540;2023-07-22T19:08:15;18.40;99.90
20590;DHT22;10453;50.810;12.540;2023-07-22T19:13:09;18.10;99.90
20590;DHT22;10453;50.810;12.540;2023-07-22T19:18:15;17.80;99.90
20590;DHT22;10453;50.810;12.540;2023-07-22T19:23:42;17.50;99.90
20590;DHT22;10453;50.810;12.540;2023-07-22T19:28:18;17.20;99.90
20590;DHT22;10453;50.810;12.540;2023-07-22T19:33:02;17.00;99.90
20590;DHT22;10453;50.810;12.540;2023-07-22T19:38:07;16.80;99.90
20590;DHT22;10453;50.810;12.540;2023-07-22T19:42:59;16.60;99.90
20590;DHT22;10453;50.810;12.540;2023-07-22T19:47:35;16.50;99.90
20590;DHT22;10453;50.810;12.540;2023-07-22T19:52:10;16.40;99.90
20590;DHT22;10453;50.810;12.540;2023-07-22T19:57:09;16.30;99.90
20590;DHT22;10453;50.810;12.540;2023-07-22T20:01:30;16.20;99.90
20590;DHT22;10453;50.810;12.540;2023-07-22T20:06:32;16.10;99.90
20590;DHT22;10453;50.810;12.540;2023-07-22T20:10:57;16.10;99.90
20590;DHT22;10453;50.810;12.540;2023-07-22T20:15:17;15.90;99.90
20590;DHT22;10453;50.810;12.540;2023-07-22T20:19:50;15.90;99.90
20590;DHT22;10453;50.810;12.540;2023-07-22T20:24:35;15.80;99.90
20590;DHT22;10453;50.810;12.540;2023-07-22T20:28:58;15.70;99.90
20590;DHT22;10453;50.810;12.540;2023-07-22T20:33:28;15.50;99.90
20590;DHT22;10453;50.810;12.540;2023-07-22T20:42:52;15.40;99.90
20590;DHT22;10453;50.810;12.540;2023-07-22T20:47:59;15.50;99.90
20590;DHT22;10453;50.810;12.540;2023-07-22T20:52:22;15.40;99.90
20590;DHT22;10453;50.810;12.540;2023-07-22T20:56:50;15.30;99.90
20590;DHT22;10453;50.810;12.540;2023-07-22T21:01:12;15.30;99.90
20590;DHT22;10453;50.810;12.540;2023-07-22T21:05:30;15.30;99.90
20590;DHT22;10453;50.810;12.540;2023-07-22T21:09:58;15.10;99.90
20590;DHT22;10453;50.810;12.540;2023-07-22T21:14:21;15.00;99.90
20590;DHT22;10453;50.810;12.540;2023-07-22T21:18:41;15.00;99.90
20590;DHT22;10453;50.810;12.540;2023-07-22T21:23:03;14.90;99.90
20590;DHT22;10453;50.810;12.540;2023-07-22T21:27:21;15.10;99.90
20590;DHT22;10453;50.810;12.540;2023-07-22T21:31:50;14.90;99.90
20590;DHT22;10453;50.810;12.540;2023-07-22T21:36:08;14.90;99.90
20590;DHT22;10453;50.810;12.540;2023-07-22T21:40:26;14.80;99.90
20590;DHT22;10453;50.810;12.540;2023-07-22T21:44:56;14.60;99.90
20590;DHT22;10453;50.810;12.540;2023-07-22T21:49:14;14.40;99.90
20590;DHT22;10453;50.810;12.540;2023-07-22T21:53:36;14.30;99.90
20590;DHT22;10453;50.810;12.540;2023-07-22T21:57:59;14.30;99.90
20590;DHT22;10453;50.810;12.540;2023-07-22T22:02:20;14.20;99.90
20590;DHT22;10453;50.810;12.540;2023-07-22T22:06:40;14.10;99.90
20590;DHT22;10453;50.810;12.540;2023-07-22T22:11:04;14.10;99.90
20590;DHT22;10453;50.810;12.540;2023-07-22T22:15:27;14.10;99.90
20590;DHT22;10453;50.810;12.540;2023-07-22T22:19:45;13.90;99.90
20590;DHT22;10453;50.810;12.540;2023-07-22T22:24:06;14.00;99.90
20590;DHT22;10453;50.810;12.540;2023-07-22T22:28:30;14.00;99.90
20590;DHT22;10453;50.810;12.540;2023-07-22T22:32:55;14.10;99.90
20590;DHT22;10453;50.810;12.540;2023-07-22T22:37:13;14.10;99.90
20590;DHT22;10453;50.810;12.540;2023-07-22T22:41:33;14.10;99.90
20590;DHT22;10453;50.810;12.540;2023-07-22T22:45:55;14.10;99.90
20590;DHT22;10453;50.810;12.540;2023-07-22T22:50:15;14.00;99.90
20590;DHT22;10453;50.810;12.540;2023-07-22T22:54:40;14.10;99.90
20590;DHT22;10453;50.810;12.540;2023-07-22T22:58:58;14.10;99.90
20590;DHT22;10453;50.810;12.540;2023-07-22T23:03:21;14.10;99.90
20590;DHT22;10453;50.810;12.540;2023-07-22T23:07:42;14.10;99.90
20590;DHT22;10453;50.810;12.540;2023-07-22T23:12:02;13.90;99.90
20590;DHT22;10453;50.810;12.540;2023-07-22T23:16:29;13.80;99.90
20590;DHT22;10453;50.810;12.540;2023-07-22T23:20:47;13.90;99.90
20590;DHT22;10453;50.810;12.540;2023-07-22T23:25:05;13.90;99.90
20590;DHT22;10453;50.810;12.540;2023-07-22T23:29:28;14.10;99.90
20590;DHT22;10453;50.810;12.540;2023-07-22T23:33:49;14.20;99.90
20590;DHT22;10453;50.810;12.540;2023-07-22T23:38:09;14.30;99.90
20590;DHT22;10453;50.810;12.540;2023-07-22T23:42:35;14.50;99.90
20590;DHT22;10453;50.810;12.540;2023-07-22T23:46:55;14.50;99.90
20590;DHT22;10453;50.810;12.540;2023-07-22T23:51:16;14.50;99.90
20590;DHT22;10453;50.810;12.540;2023-07-22T23:55:37;14.60;99.90
